createdAt,value
2022-08-03T00:02:20.895Z,19.01
2022-08-03T00:04:49.278Z,18.96
2022-08-03T00:07:17.342Z,18.92
2022-08-03T00:09:45.957Z,18.89
2022-08-03T00:12:14.558Z,18.84
2022-08-03T00:14:43.199Z,18.79
2022-08-03T00:17:11.506Z,18.73
2022-08-03T00:19:39.553Z,18.67
2022-08-03T00:22:07.724Z,18.62
2022-08-03T00:24:36.619Z,18.59
2022-08-03T00:27:04.685Z,18.56
2022-08-03T00:29:32.772Z,18.52
2022-08-03T00:32:00.941Z,18.50
2022-08-03T00:34:36.546Z,18.47
2022-08-03T00:37:17.348Z,18.41
2022-08-03T00:39:47.507Z,18.39
2022-08-03T00:42:16.167Z,18.37
2022-08-03T00:44:45.665Z,18.37
2022-08-03T00:47:13.790Z,18.36
2022-08-03T00:49:42.548Z,18.37
2022-08-03T00:52:11.883Z,18.35
2022-08-03T00:54:40.453Z,18.35
2022-08-03T00:57:08.682Z,18.35
2022-08-03T00:59:38.501Z,18.35
2022-08-03T01:02:06.975Z,18.36
2022-08-03T01:04:35.257Z,18.35
2022-08-03T01:07:12.438Z,18.34
2022-08-03T01:09:49.418Z,18.30
2022-08-03T01:12:22.958Z,18.25
2022-08-03T01:14:56.216Z,18.19
2022-08-03T01:17:57.724Z,18.14
2022-08-03T01:20:29.994Z,18.07
2022-08-03T01:23:28.843Z,18.03
2022-08-03T01:26:06.325Z,17.98
2022-08-03T01:29:11.469Z,17.94
2022-08-03T01:32:53.557Z,17.89
2022-08-03T01:34:52.075Z,17.86
2022-08-03T01:37:26.686Z,17.80
2022-08-03T01:39:57.618Z,17.75
2022-08-03T01:42:27.589Z,17.70
2022-08-03T01:44:58.169Z,17.63
2022-08-03T01:47:29.099Z,17.56
2022-08-03T01:49:58.494Z,17.50
2022-08-03T01:52:27.782Z,17.43
2022-08-03T01:54:57.000Z,17.38
2022-08-03T01:57:27.011Z,17.35
2022-08-03T01:59:57.978Z,17.32
2022-08-03T02:02:33.016Z,17.30
2022-08-03T02:05:10.688Z,17.27
2022-08-03T02:07:41.916Z,17.24
2022-08-03T02:10:13.399Z,17.22
2022-08-03T02:12:45.948Z,17.20
2022-08-03T02:15:18.551Z,17.20
2022-08-03T02:17:47.967Z,17.20
2022-08-03T02:20:17.253Z,17.21
2022-08-03T02:22:46.961Z,17.21
2022-08-03T02:25:16.156Z,17.20
2022-08-03T02:27:53.145Z,17.19
2022-08-03T02:30:24.319Z,17.18
2022-08-03T02:32:56.450Z,17.18
2022-08-03T02:35:27.524Z,17.18
2022-08-03T02:38:02.423Z,17.17
2022-08-03T02:40:32.321Z,17.16
2022-08-03T02:43:12.192Z,17.14
2022-08-03T02:45:45.618Z,17.12
2022-08-03T02:48:19.047Z,17.11
2022-08-03T02:50:48.561Z,17.09
2022-08-03T02:53:18.513Z,17.07
2022-08-03T02:55:49.544Z,17.05
2022-08-03T02:58:21.295Z,17.01
2022-08-03T03:00:54.117Z,16.97
2022-08-03T03:03:23.178Z,16.92
2022-08-03T03:05:57.703Z,16.88
2022-08-03T03:08:29.244Z,16.85
2022-08-03T03:11:00.318Z,16.82
2022-08-03T03:13:32.599Z,16.80
2022-08-03T03:16:02.818Z,16.78
2022-08-03T03:18:34.834Z,16.75
2022-08-03T03:21:04.463Z,16.73
2022-08-03T03:23:36.738Z,16.70
2022-08-03T03:26:06.387Z,16.67
2022-08-03T03:28:37.486Z,16.64
2022-08-03T03:31:07.810Z,16.63
2022-08-03T03:33:37.342Z,16.60
2022-08-03T03:36:06.969Z,16.59
2022-08-03T03:38:35.403Z,16.60
2022-08-03T03:41:05.148Z,16.63
2022-08-03T03:43:33.740Z,16.66
2022-08-03T03:46:02.283Z,16.70
2022-08-03T03:48:30.353Z,16.74
2022-08-03T03:51:01.498Z,16.80
2022-08-03T03:53:29.775Z,16.86
2022-08-03T03:56:01.794Z,16.91
2022-08-03T03:58:32.652Z,16.95
2022-08-03T04:01:01.812Z,17.00
2022-08-03T04:03:30.565Z,17.06
2022-08-03T04:06:17.625Z,17.11
2022-08-03T04:09:04.345Z,17.17
2022-08-03T04:11:39.835Z,17.22
2022-08-03T04:14:22.954Z,17.24
2022-08-03T04:16:55.843Z,17.27
2022-08-03T04:19:23.838Z,17.31
2022-08-03T04:21:57.146Z,17.34
2022-08-03T04:24:31.239Z,17.34
2022-08-03T04:27:02.876Z,17.36
2022-08-03T04:29:35.189Z,17.38
2022-08-03T04:32:08.368Z,17.41
2022-08-03T04:34:36.612Z,17.44
2022-08-03T04:37:12.361Z,17.46
2022-08-03T04:39:43.176Z,17.49
2022-08-03T04:42:14.697Z,17.51
2022-08-03T04:44:46.039Z,17.54
2022-08-03T04:47:14.384Z,17.57
2022-08-03T04:49:43.845Z,17.60
2022-08-03T04:52:12.262Z,17.63
2022-08-03T04:54:50.076Z,17.67
2022-08-03T04:57:23.220Z,17.72
2022-08-03T05:00:02.252Z,17.76
2022-08-03T05:02:32.373Z,17.84
2022-08-03T05:05:00.766Z,17.89
2022-08-03T05:07:35.575Z,17.95
2022-08-03T05:10:15.877Z,18.01
2022-08-03T05:12:48.349Z,18.06
2022-08-03T05:15:16.621Z,18.12
2022-08-03T05:17:44.932Z,18.19
2022-08-03T05:20:13.176Z,18.26
2022-08-03T05:22:44.647Z,18.33
2022-08-03T05:25:19.785Z,18.40
2022-08-03T05:27:48.981Z,18.49
2022-08-03T05:30:31.239Z,18.58
2022-08-03T05:33:04.049Z,18.68
2022-08-03T05:36:01.010Z,18.78
2022-08-03T05:38:23.920Z,18.89
2022-08-03T05:41:21.214Z,18.99
2022-08-03T05:43:46.839Z,19.10
2022-08-03T05:46:14.889Z,19.19
2022-08-03T05:48:43.590Z,19.29
2022-08-03T05:51:12.220Z,19.34
2022-08-03T05:53:42.697Z,19.39
2022-08-03T05:56:14.040Z,19.46
2022-08-03T05:58:45.677Z,19.52
2022-08-03T06:01:14.377Z,19.58
2022-08-03T06:03:42.862Z,19.63
2022-08-03T06:06:11.906Z,19.67
2022-08-03T06:08:41.293Z,19.71
2022-08-03T06:11:10.356Z,19.74
2022-08-03T06:13:38.939Z,19.78
2022-08-03T06:16:07.323Z,19.82
2022-08-03T06:18:36.108Z,19.84
2022-08-03T06:21:14.124Z,19.87
2022-08-03T06:23:52.851Z,19.90
2022-08-03T06:26:28.040Z,19.96
2022-08-03T06:28:56.440Z,20.00
2022-08-03T06:31:33.435Z,20.03
2022-08-03T06:34:33.714Z,20.07
2022-08-03T06:36:53.533Z,20.12
2022-08-03T06:39:23.573Z,20.16
2022-08-03T06:41:53.213Z,20.18
2022-08-03T06:44:21.564Z,20.21
2022-08-03T06:46:49.851Z,20.25
2022-08-03T06:49:18.057Z,20.30
2022-08-03T06:52:04.288Z,20.35
2022-08-03T06:54:36.220Z,20.40
2022-08-03T06:57:06.115Z,20.43
2022-08-03T07:00:10.172Z,20.48
2022-08-03T07:02:22.531Z,20.52
2022-08-03T07:04:50.660Z,20.58
2022-08-03T07:07:19.574Z,20.64
2022-08-03T07:09:56.338Z,20.68
2022-08-03T07:12:30.648Z,20.73
2022-08-03T07:15:02.228Z,20.77
2022-08-03T07:17:36.359Z,20.82
2022-08-03T07:20:07.472Z,20.87
2022-08-03T07:22:35.942Z,20.91
2022-08-03T07:25:05.111Z,20.96
2022-08-03T07:27:33.913Z,21.00
2022-08-03T07:30:02.253Z,21.04
2022-08-03T07:32:31.775Z,21.08
2022-08-03T07:35:01.066Z,21.12
2022-08-03T07:37:31.179Z,21.17
2022-08-03T07:40:04.377Z,21.24
2022-08-03T07:42:32.599Z,21.31
2022-08-03T07:45:00.981Z,21.39
2022-08-03T07:47:35.746Z,21.46
2022-08-03T07:50:06.576Z,21.53
2022-08-03T07:52:49.918Z,21.59
2022-08-03T07:55:23.776Z,21.65
2022-08-03T07:58:05.570Z,21.71
2022-08-03T08:00:34.261Z,21.77
2022-08-03T08:03:03.045Z,21.83
2022-08-03T08:05:31.737Z,21.90
2022-08-03T08:08:01.188Z,21.96
2022-08-03T08:10:30.435Z,22.03
2022-08-03T08:12:58.818Z,22.10
2022-08-03T08:15:26.891Z,22.18
2022-08-03T08:17:56.581Z,22.25
2022-08-03T08:20:30.714Z,22.34
2022-08-03T08:23:03.431Z,22.41
2022-08-03T08:25:32.800Z,22.50
2022-08-03T08:28:31.372Z,22.59
2022-08-03T08:30:51.258Z,22.70
2022-08-03T08:33:23.338Z,22.80
2022-08-03T08:35:53.779Z,22.90
2022-08-03T08:38:23.363Z,22.99
2022-08-03T08:40:51.532Z,23.07
2022-08-03T08:43:19.711Z,23.15
2022-08-03T08:45:52.594Z,23.22
2022-08-03T08:48:25.283Z,23.30
2022-08-03T08:50:55.887Z,23.36
2022-08-03T08:53:29.065Z,23.44
2022-08-03T08:56:02.378Z,23.53
2022-08-03T08:58:47.360Z,23.63
2022-08-03T09:01:19.078Z,23.75
2022-08-03T09:03:48.005Z,23.84
2022-08-03T09:06:17.045Z,23.92
2022-08-03T09:08:45.177Z,23.99
2022-08-03T09:11:13.347Z,24.06
2022-08-03T09:13:42.160Z,24.15
2022-08-03T09:16:13.383Z,24.24
2022-08-03T09:18:54.615Z,24.33
2022-08-03T09:21:33.924Z,24.42
2022-08-03T09:24:07.040Z,24.51
2022-08-03T09:26:38.396Z,24.57
2022-08-03T09:29:14.969Z,24.64
2022-08-03T09:31:46.197Z,24.73
2022-08-03T09:34:17.099Z,24.84
2022-08-03T09:36:47.825Z,24.95
2022-08-03T09:39:19.144Z,25.06
2022-08-03T09:42:07.627Z,25.19
2022-08-03T09:44:44.913Z,25.34
2022-08-03T09:47:16.644Z,25.46
2022-08-03T09:49:59.002Z,25.60
2022-08-03T09:52:49.414Z,25.72
2022-08-03T09:56:32.722Z,25.86
2022-08-03T09:58:10.802Z,25.99
2022-08-03T10:00:57.560Z,26.11
2022-08-03T10:03:31.512Z,26.21
2022-08-03T10:06:14.245Z,26.30
2022-08-03T10:08:42.519Z,26.41
2022-08-03T10:11:10.678Z,26.50
2022-08-03T10:13:40.126Z,26.56
2022-08-03T10:16:23.237Z,26.64
2022-08-03T10:18:54.128Z,26.73
2022-08-03T10:21:22.660Z,26.85
2022-08-03T10:23:53.650Z,26.96
2022-08-03T10:26:26.452Z,27.07
2022-08-03T10:28:58.892Z,27.18
2022-08-03T10:31:54.516Z,27.27
2022-08-03T10:34:29.800Z,27.38
2022-08-03T10:37:00.351Z,27.48
2022-08-03T10:39:30.446Z,27.58
2022-08-03T10:41:59.946Z,27.67
2022-08-03T10:44:39.972Z,27.77
2022-08-03T10:47:10.430Z,27.85
2022-08-03T10:49:39.308Z,27.93
2022-08-03T10:52:13.853Z,28.01
2022-08-03T10:55:14.792Z,28.12
2022-08-03T10:57:56.216Z,28.25
2022-08-03T11:00:30.550Z,28.35
2022-08-03T11:03:12.179Z,28.45
2022-08-03T11:05:41.584Z,28.55
2022-08-03T11:08:48.576Z,28.63
2022-08-03T11:11:19.404Z,28.73
2022-08-03T11:14:01.898Z,28.83
2022-08-03T11:16:31.851Z,28.92
2022-08-03T11:19:01.748Z,29.02
2022-08-03T11:21:52.239Z,29.11
2022-08-03T11:24:39.565Z,29.20
2022-08-03T11:27:17.515Z,29.32
2022-08-03T11:30:07.561Z,29.42
2022-08-03T11:32:38.707Z,29.54
2022-08-03T11:35:15.580Z,29.65
2022-08-03T11:38:03.026Z,29.74
2022-08-03T11:40:33.125Z,29.83
2022-08-03T11:43:02.011Z,29.89
2022-08-03T11:45:31.413Z,29.94
2022-08-03T11:48:13.110Z,29.93
2022-08-03T11:50:45.346Z,29.96
2022-08-03T11:53:18.832Z,30.03
2022-08-03T11:55:51.252Z,30.11
2022-08-03T11:59:18.814Z,30.18
2022-08-03T12:01:11.588Z,30.25
2022-08-03T12:03:39.938Z,30.32
2022-08-03T12:06:13.268Z,30.40
2022-08-03T12:08:43.253Z,30.49
2022-08-03T12:11:13.937Z,30.60
2022-08-03T12:14:32.971Z,30.69
2022-08-03T12:16:39.515Z,30.80
2022-08-03T12:19:08.397Z,30.88
2022-08-03T12:21:57.147Z,30.93
2022-08-03T12:24:28.723Z,30.99
2022-08-03T12:26:59.975Z,31.05
2022-08-03T12:29:29.058Z,31.13
2022-08-03T12:31:57.303Z,31.20
2022-08-03T12:34:47.318Z,31.24
2022-08-03T12:37:23.672Z,31.27
2022-08-03T12:40:03.066Z,31.31
2022-08-03T12:42:37.285Z,31.39
2022-08-03T12:45:28.556Z,31.42
2022-08-03T12:48:01.912Z,31.41
2022-08-03T12:50:34.839Z,31.46
2022-08-03T12:53:07.963Z,31.50
2022-08-03T12:55:57.201Z,31.55
2022-08-03T12:58:34.404Z,31.61
2022-08-03T13:01:09.471Z,31.65
2022-08-03T13:03:43.496Z,31.66
2022-08-03T13:06:16.149Z,31.67
2022-08-03T13:08:46.152Z,31.66
2022-08-03T13:11:20.588Z,31.67
2022-08-03T13:13:49.336Z,31.66
2022-08-03T13:16:19.450Z,31.65
2022-08-03T13:18:49.034Z,31.67
2022-08-03T13:21:19.738Z,31.68
2022-08-03T13:23:48.408Z,31.68
2022-08-03T13:26:16.430Z,31.69
2022-08-03T13:28:44.628Z,31.70
2022-08-03T13:31:13.002Z,31.73
2022-08-03T13:33:41.424Z,31.77
2022-08-03T13:36:09.557Z,31.80
2022-08-03T13:38:37.818Z,31.79
2022-08-03T13:41:06.312Z,31.78
2022-08-03T13:43:34.493Z,31.78
2022-08-03T13:46:02.664Z,31.75
2022-08-03T13:48:34.748Z,31.74
2022-08-03T13:51:21.695Z,31.72
2022-08-03T13:53:52.487Z,31.72
2022-08-03T13:56:20.753Z,31.74
2022-08-03T13:58:48.848Z,31.73
2022-08-03T14:01:18.565Z,31.72
2022-08-03T14:03:54.494Z,31.70
2022-08-03T14:06:24.329Z,31.71
2022-08-03T14:08:52.710Z,31.74
2022-08-03T14:11:20.963Z,31.78
2022-08-03T14:13:49.018Z,31.80
2022-08-03T14:16:17.209Z,31.79
2022-08-03T14:18:46.099Z,31.78
2022-08-03T14:21:14.480Z,31.76
2022-08-03T14:23:42.573Z,31.73
2022-08-03T14:26:14.719Z,31.73
2022-08-03T14:28:42.813Z,31.74
2022-08-03T14:32:09.047Z,31.75
2022-08-03T14:33:59.102Z,31.73
2022-08-03T14:36:27.277Z,31.70
2022-08-03T14:39:00.814Z,31.66
2022-08-03T14:41:29.773Z,31.65
2022-08-03T14:44:01.056Z,31.67
2022-08-03T14:46:30.870Z,31.69
2022-08-03T14:50:34.886Z,31.67
2022-08-03T14:51:51.569Z,31.65
2022-08-03T14:54:23.127Z,31.65
2022-08-03T14:56:51.789Z,31.64
2022-08-03T14:59:19.777Z,31.62
2022-08-03T15:02:05.446Z,31.60
2022-08-03T15:04:36.016Z,31.58
2022-08-03T15:07:04.760Z,31.55
2022-08-03T15:09:33.443Z,31.52
2022-08-03T15:12:01.927Z,31.50
2022-08-03T15:14:33.110Z,31.48
2022-08-03T15:17:01.863Z,31.48
2022-08-03T15:20:03.568Z,31.48
2022-08-03T15:22:20.710Z,31.47
2022-08-03T15:24:53.128Z,31.44
2022-08-03T15:27:21.362Z,31.40
2022-08-03T15:30:09.065Z,31.35
2022-08-03T15:32:38.419Z,31.32
2022-08-03T15:35:07.620Z,31.31
2022-08-03T15:37:35.895Z,31.27
2022-08-03T15:40:04.987Z,31.24
2022-08-03T15:42:34.084Z,31.21
2022-08-03T15:45:02.259Z,31.18
2022-08-03T15:47:30.252Z,31.13
2022-08-03T15:49:58.406Z,31.08
2022-08-03T15:52:26.683Z,31.01
2022-08-03T15:54:54.788Z,30.98
2022-08-03T15:57:23.471Z,30.96
2022-08-03T15:59:52.120Z,30.94
2022-08-03T16:02:20.294Z,30.92
2022-08-03T16:04:48.479Z,30.91
2022-08-03T16:07:36.611Z,30.89
2022-08-03T16:10:05.230Z,30.85
2022-08-03T16:12:33.250Z,30.81
2022-08-03T16:15:02.657Z,30.77
2022-08-03T16:17:31.599Z,30.73
2022-08-03T16:19:59.737Z,30.68
2022-08-03T16:22:28.221Z,30.64
2022-08-03T16:24:56.404Z,30.61
2022-08-03T16:27:25.076Z,30.59
2022-08-03T16:30:16.688Z,30.54
2022-08-03T16:32:45.800Z,30.48
2022-08-03T16:35:19.625Z,30.44
2022-08-03T16:37:54.599Z,30.39
2022-08-03T16:40:26.263Z,30.33
2022-08-03T16:42:54.368Z,30.28
2022-08-03T16:45:23.051Z,30.22
2022-08-03T16:48:01.602Z,30.16
2022-08-03T16:50:35.350Z,30.11
2022-08-03T16:53:09.615Z,30.06
2022-08-03T16:55:43.394Z,30.00
2022-08-03T16:58:34.953Z,29.95
2022-08-03T17:01:22.350Z,29.88
2022-08-03T17:04:03.463Z,29.82
2022-08-03T17:06:45.054Z,29.76
2022-08-03T17:09:18.149Z,29.69
2022-08-03T17:11:49.133Z,29.62
2022-08-03T17:14:29.387Z,29.56
2022-08-03T17:17:01.788Z,29.48
2022-08-03T17:19:35.266Z,29.42
2022-08-03T17:22:11.005Z,29.35
2022-08-03T17:24:50.251Z,29.27
2022-08-03T17:28:49.454Z,29.18
2022-08-03T17:30:13.494Z,29.09
2022-08-03T17:32:52.636Z,29.00
2022-08-03T17:35:36.416Z,28.92
2022-08-03T17:38:12.064Z,28.82
2022-08-03T17:40:50.017Z,28.71
2022-08-03T17:44:13.141Z,28.61
2022-08-03T17:46:10.912Z,28.50
2022-08-03T17:48:41.397Z,28.38
2022-08-03T17:51:17.303Z,28.25
2022-08-03T17:53:53.013Z,28.08
2022-08-03T17:56:40.748Z,27.91
2022-08-03T17:59:50.297Z,27.73
2022-08-03T18:02:40.812Z,27.57
2022-08-03T18:08:11.600Z,27.24
2022-08-03T18:10:49.842Z,27.13
2022-08-03T18:13:24.295Z,27.01
2022-08-03T18:16:00.338Z,26.86
2022-08-03T18:18:40.897Z,26.70
2022-08-03T18:21:16.894Z,26.55
2022-08-03T18:23:50.932Z,26.40
2022-08-03T18:26:20.575Z,26.26
2022-08-03T18:28:53.049Z,26.12
2022-08-03T18:32:00.520Z,25.98
2022-08-03T18:34:31.999Z,25.85
2022-08-03T18:37:07.270Z,25.72
2022-08-03T18:39:50.239Z,25.61
2022-08-03T18:42:26.265Z,25.49
2022-08-03T18:44:56.459Z,25.38
2022-08-03T18:48:21.708Z,25.27
2022-08-03T18:51:06.791Z,25.12
2022-08-03T18:54:02.198Z,25.02
2022-08-03T18:56:48.517Z,24.92
2022-08-03T18:59:30.284Z,24.83
2022-08-03T19:02:09.211Z,24.74
2022-08-03T19:04:47.566Z,24.64
2022-08-03T19:10:11.108Z,24.43
2022-08-03T19:13:19.073Z,24.36
2022-08-03T19:16:04.211Z,24.26
2022-08-03T19:18:37.939Z,24.18
2022-08-03T19:21:12.741Z,24.11
2022-08-03T19:23:47.594Z,24.05
2022-08-03T19:26:29.985Z,23.98
2022-08-03T19:28:59.737Z,23.89
2022-08-03T19:31:30.949Z,23.81
2022-08-03T19:34:01.240Z,23.73
2022-08-03T19:36:31.486Z,23.65
2022-08-03T19:39:00.026Z,23.56
2022-08-03T19:41:41.925Z,23.45
2022-08-03T19:44:19.807Z,23.36
2022-08-03T19:47:01.457Z,23.29
2022-08-03T19:49:57.685Z,23.21
2022-08-03T19:52:31.139Z,23.12
2022-08-03T19:55:04.852Z,23.05
2022-08-03T19:57:35.738Z,22.99
2022-08-03T20:00:08.203Z,22.95
2022-08-03T20:02:36.539Z,22.92
2022-08-03T20:05:05.802Z,22.87
2022-08-03T20:07:47.911Z,22.80
2022-08-03T20:10:18.162Z,22.70
2022-08-03T20:12:48.499Z,22.56
2022-08-03T20:15:30.967Z,22.46
2022-08-03T20:18:00.668Z,22.39
2022-08-03T20:20:33.256Z,22.33
2022-08-03T20:23:06.920Z,22.28
2022-08-03T20:25:48.643Z,22.23
2022-08-03T20:28:26.799Z,22.18
2022-08-03T20:30:55.536Z,22.09
2022-08-03T20:33:27.969Z,22.05
2022-08-03T20:36:12.261Z,22.01
2022-08-03T20:38:47.225Z,21.97
2022-08-03T20:41:17.089Z,21.93
2022-08-03T20:43:46.619Z,21.89
2022-08-03T20:46:32.890Z,21.80
2022-08-03T20:49:07.137Z,21.71
2022-08-03T20:51:49.973Z,21.64
2022-08-03T20:54:29.946Z,21.57
2022-08-03T20:57:04.345Z,21.50
2022-08-03T20:59:50.167Z,21.45
2022-08-03T21:02:30.496Z,21.38
2022-08-03T21:05:02.948Z,21.33
2022-08-03T21:08:03.702Z,21.29
2022-08-03T21:10:30.539Z,21.24
2022-08-03T21:13:01.364Z,24.55
2022-08-03T21:13:04.405Z,27.40
2022-08-03T21:13:18.859Z,21.20
2022-08-03T21:16:11.565Z,21.14
2022-08-03T21:18:45.587Z,21.09
2022-08-03T21:21:16.315Z,21.05
2022-08-03T21:23:48.168Z,21.01
2022-08-03T21:26:24.619Z,20.97
2022-08-03T21:28:55.744Z,20.92
2022-08-03T21:31:26.565Z,20.88
2022-08-03T21:34:01.089Z,20.83
2022-08-03T21:36:32.441Z,20.77
2022-08-03T21:39:01.944Z,20.72
2022-08-03T21:41:32.193Z,20.69
2022-08-03T21:44:01.679Z,20.64
2022-08-03T21:46:44.331Z,20.60
2022-08-03T21:50:04.980Z,20.55
2022-08-03T21:52:05.928Z,20.50
2022-08-03T21:54:37.070Z,20.46
2022-08-03T21:57:13.425Z,20.42
2022-08-03T21:59:51.728Z,20.35
2022-08-03T22:02:24.516Z,20.30
2022-08-03T22:04:56.268Z,20.25
2022-08-03T22:07:27.779Z,20.19
2022-08-03T22:09:58.118Z,20.15
2022-08-03T22:12:28.191Z,20.09
2022-08-03T22:15:01.346Z,20.04
2022-08-03T22:17:55.787Z,20.00
2022-08-03T22:20:22.028Z,19.95
2022-08-03T22:22:55.896Z,19.90
2022-08-03T22:25:35.038Z,19.86
2022-08-03T22:28:07.762Z,19.82
2022-08-03T22:30:37.189Z,19.78
2022-08-03T22:33:11.379Z,19.75
2022-08-03T22:35:48.283Z,19.72
2022-08-03T22:38:18.889Z,19.69
2022-08-03T22:40:49.271Z,19.65
2022-08-03T22:43:17.585Z,19.62
2022-08-03T22:46:10.448Z,19.59
2022-08-03T22:48:40.638Z,19.57
2022-08-03T22:51:10.235Z,19.53
2022-08-03T22:53:39.736Z,19.50
2022-08-03T22:56:09.130Z,19.46
2022-08-03T22:58:37.518Z,19.42
2022-08-03T23:01:12.006Z,19.39
2022-08-03T23:04:01.282Z,19.35
2022-08-03T23:06:38.363Z,19.31
2022-08-03T23:09:13.698Z,19.28
2022-08-03T23:11:45.409Z,19.26
2022-08-03T23:14:16.956Z,19.21
2022-08-03T23:16:47.481Z,19.15
2022-08-03T23:19:25.179Z,19.11
2022-08-03T23:22:02.762Z,19.06
2022-08-03T23:24:39.144Z,19.01
2022-08-03T23:27:09.288Z,18.97
2022-08-03T23:29:39.269Z,18.94
2022-08-03T23:32:08.064Z,18.92
2022-08-03T23:34:58.257Z,18.89
2022-08-03T23:37:27.248Z,18.84
2022-08-03T23:39:57.491Z,18.81
2022-08-03T23:42:26.357Z,18.79
2022-08-03T23:44:59.293Z,18.76
2022-08-03T23:47:46.563Z,18.73
2022-08-03T23:50:16.998Z,18.70
2022-08-03T23:53:07.692Z,18.69
2022-08-03T23:56:11.109Z,18.66
2022-08-03T23:59:04.560Z,18.62
